PRIVATE WETTERSTATION BILLIGHEIM-ALLFELD                       ZURCK
Wetterdaten: Sonntag, 12.03.2017
Datum Zeit Temp. A. Temp. A. min Temp. A. max Feuchte A. Luftdruck Regen Wind Richtung Richtung Sonnenschein ET Solar Taupunkt Windchill Windben Empfang
12.03.2017 00:00 4,2 C 4,2 C 4,2 C 76 % 1019,0 hPa 0,0 l/m 0,0 km/h (0 Bft) NO 45 0 min 0,025 mm 0 W/m 0,4 C 4,2 C 4,8 km/h (1 Bft) 100 %
12.03.2017 00:10 4,1 C 4,1 C 4,2 C 76 % 1018,9 hPa 0,0 l/m 1,6 km/h (1 Bft) NO 45 0 min 0,000 mm 0 W/m 0,3 C 4,1 C 4,8 km/h (1 Bft) 100 %
12.03.2017 00:20 4,0 C 4,0 C 4,1 C 76 % 1018,9 hPa 0,0 l/m 0,0 km/h (0 Bft) NO 45 0 min 0,000 mm 0 W/m 0,2 C 4,0 C 1,6 km/h (1 Bft) 99 %
12.03.2017 00:30 4,0 C 4,0 C 4,0 C 76 % 1018,8 hPa 0,0 l/m 0,0 km/h (0 Bft) N-NO 22 0 min 0,000 mm 0 W/m 0,2 C 4,0 C 3,2 km/h (1 Bft) 100 %
12.03.2017 00:40 3,9 C 3,9 C 4,0 C 76 % 1018,9 hPa 0,0 l/m 0,0 km/h (0 Bft) N-NO 22 0 min 0,000 mm 0 W/m 0,1 C 3,9 C 4,8 km/h (1 Bft) 100 %
12.03.2017 00:50 3,8 C 3,8 C 3,9 C 75 % 1018,8 hPa 0,0 l/m 0,0 km/h (0 Bft) N-NO 22 0 min 0,000 mm 0 W/m -0,2 C 3,8 C 4,8 km/h (1 Bft) 100 %
12.03.2017 01:00 3,8 C 3,8 C 3,8 C 75 % 1018,8 hPa 0,0 l/m 0,0 km/h (0 Bft) NO 45 0 min 0,025 mm 0 W/m -0,2 C 3,8 C 3,2 km/h (1 Bft) 100 %
12.03.2017 01:10 3,8 C 3,8 C 3,8 C 75 % 1018,8 hPa 0,0 l/m 0,0 km/h (0 Bft) N 0 0 min 0,000 mm 0 W/m -0,2 C 3,8 C 0,0 km/h (0 Bft) 100 %
12.03.2017 01:20 3,7 C 3,7 C 3,8 C 75 % 1018,7 hPa 0,0 l/m 0,0 km/h (0 Bft) N 0 0 min 0,000 mm 0 W/m -0,3 C 3,7 C 0,0 km/h (0 Bft) 100 %
12.03.2017 01:30 3,8 C 3,7 C 3,8 C 74 % 1018,6 hPa 0,0 l/m 1,6 km/h (1 Bft) O-NO 67 0 min 0,000 mm 0 W/m -0,4 C 3,8 C 9,7 km/h (2 Bft) 100 %
12.03.2017 01:40 3,9 C 3,8 C 3,9 C 73 % 1018,5 hPa 0,0 l/m 1,6 km/h (1 Bft) NO 45 0 min 0,000 mm 0 W/m -0,5 C 3,9 C 6,4 km/h (2 Bft) 100 %
12.03.2017 01:50 3,8 C 3,8 C 4,0 C 74 % 1018,4 hPa 0,0 l/m 0,0 km/h (0 Bft) NO 45 0 min 0,000 mm 0 W/m -0,4 C 3,8 C 3,2 km/h (1 Bft) 100 %
12.03.2017 02:00 3,6 C 3,6 C 3,8 C 74 % 1018,3 hPa 0,0 l/m 0,0 km/h (0 Bft) O-NO 67 0 min 0,025 mm 0 W/m -0,6 C 3,6 C 4,8 km/h (1 Bft) 100 %
12.03.2017 02:10 3,5 C 3,5 C 3,6 C 74 % 1018,2 hPa 0,0 l/m 1,6 km/h (1 Bft) NO 45 0 min 0,000 mm 0 W/m -0,7 C 3,5 C 4,8 km/h (1 Bft) 100 %
12.03.2017 02:20 3,4 C 3,4 C 3,5 C 74 % 1018,1 hPa 0,0 l/m 0,0 km/h (0 Bft) NO 45 0 min 0,000 mm 0 W/m -0,8 C 3,4 C 4,8 km/h (1 Bft) 87 %
12.03.2017 02:30 3,4 C 3,4 C 3,4 C 74 % 1018,0 hPa 0,0 l/m 0,0 km/h (0 Bft) O-NO 67 0 min 0,000 mm 0 W/m -0,8 C 3,4 C 4,8 km/h (1 Bft) 100 %
12.03.2017 02:40 3,4 C 3,4 C 3,4 C 75 % 1018,0 hPa 0,0 l/m 1,6 km/h (1 Bft) N-NO 22 0 min 0,000 mm 0 W/m -0,6 C 3,4 C 8,0 km/h (2 Bft) 100 %
12.03.2017 02:50 3,2 C 3,2 C 3,4 C 75 % 1017,9 hPa 0,0 l/m 0,0 km/h (0 Bft) N 0 0 min 0,000 mm 0 W/m -0,8 C 3,2 C 0,0 km/h (0 Bft) 100 %
12.03.2017 03:00 2,9 C 2,9 C 3,2 C 77 % 1017,9 hPa 0,0 l/m 1,6 km/h (1 Bft) NO 45 0 min 0,025 mm 0 W/m -0,7 C 2,9 C 4,8 km/h (1 Bft) 99 %
12.03.2017 03:10 2,6 C 2,6 C 2,9 C 77 % 1017,8 hPa 0,0 l/m 0,0 km/h (0 Bft) NO 45 0 min 0,000 mm 0 W/m -1,0 C 2,6 C 4,8 km/h (1 Bft) 100 %
12.03.2017 03:20 2,6 C 2,6 C 2,7 C 77 % 1017,5 hPa 0,0 l/m 0,0 km/h (0 Bft) NO 45 0 min 0,000 mm 0 W/m -1,0 C 2,6 C 6,4 km/h (2 Bft) 100 %
12.03.2017 03:30 2,6 C 2,6 C 2,6 C 78 % 1017,5 hPa 0,0 l/m 0,0 km/h (0 Bft) N 0 0 min 0,000 mm 0 W/m -0,8 C 2,6 C 0,0 km/h (0 Bft) 100 %
12.03.2017 03:40 2,5 C 2,5 C 2,6 C 77 % 1017,3 hPa 0,0 l/m 0,0 km/h (0 Bft) N-NO 22 0 min 0,000 mm 0 W/m -1,1 C 2,5 C 6,4 km/h (2 Bft) 100 %
12.03.2017 03:50 2,6 C 2,5 C 2,6 C 77 % 1017,4 hPa 0,0 l/m 0,0 km/h (0 Bft) NO 45 0 min 0,000 mm 0 W/m -1,0 C 2,6 C 9,7 km/h (2 Bft) 100 %
12.03.2017 04:00 2,7 C 2,6 C 2,7 C 76 % 1017,3 hPa 0,0 l/m 0,0 km/h (0 Bft) NO 45 0 min 0,000 mm 0 W/m -1,1 C 2,7 C 6,4 km/h (2 Bft) 100 %
12.03.2017 04:10 2,8 C 2,7 C 2,8 C 75 % 1017,1 hPa 0,0 l/m 1,6 km/h (1 Bft) NO 45 0 min 0,000 mm 0 W/m -1,2 C 2,8 C 6,4 km/h (2 Bft) 100 %
12.03.2017 04:20 2,7 C 2,7 C 2,8 C 75 % 1017,2 hPa 0,0 l/m 3,2 km/h (1 Bft) NO 45 0 min 0,000 mm 0 W/m -1,3 C 2,7 C 14,5 km/h (3 Bft) 100 %
12.03.2017 04:30 2,6 C 2,6 C 2,7 C 75 % 1017,1 hPa 0,0 l/m 1,6 km/h (1 Bft) NO 45 0 min 0,000 mm 0 W/m -1,4 C 2,6 C 6,4 km/h (2 Bft) 99 %
12.03.2017 04:40 2,5 C 2,5 C 2,6 C 75 % 1017,0 hPa 0,0 l/m 3,2 km/h (1 Bft) NO 45 0 min 0,000 mm 0 W/m -1,5 C 2,5 C 9,7 km/h (2 Bft) 100 %
12.03.2017 04:50 2,4 C 2,4 C 2,5 C 75 % 1016,9 hPa 0,0 l/m 1,6 km/h (1 Bft) O-NO 67 0 min 0,000 mm 0 W/m -1,6 C 2,4 C 9,7 km/h (2 Bft) 100 %
12.03.2017 05:00 2,5 C 2,4 C 2,5 C 74 % 1016,9 hPa 0,0 l/m 1,6 km/h (1 Bft) O-NO 67 0 min 0,025 mm 0 W/m -1,7 C 2,5 C 9,7 km/h (2 Bft) 100 %
12.03.2017 05:10 2,7 C 2,5 C 2,7 C 73 % 1017,0 hPa 0,0 l/m 1,6 km/h (1 Bft) O-NO 67 0 min 0,000 mm 0 W/m -1,6 C 2,7 C 9,7 km/h (2 Bft) 100 %
12.03.2017 05:20 2,6 C 2,6 C 2,7 C 73 % 1016,9 hPa 0,0 l/m 0,0 km/h (0 Bft) O-NO 67 0 min 0,000 mm 0 W/m -1,7 C 2,6 C 14,5 km/h (3 Bft) 100 %
12.03.2017 05:30 2,3 C 2,3 C 2,6 C 74 % 1016,8 hPa 0,0 l/m 0,0 km/h (0 Bft) NO 45 0 min 0,000 mm 0 W/m -1,8 C 2,3 C 3,2 km/h (1 Bft) 100 %
12.03.2017 05:40 2,0 C 2,0 C 2,3 C 75 % 1016,8 hPa 0,0 l/m 0,0 km/h (0 Bft) O 90 0 min 0,000 mm 0 W/m -2,0 C 2,0 C 6,4 km/h (2 Bft) 100 %
12.03.2017 05:50 1,8 C 1,8 C 2,0 C 75 % 1016,6 hPa 0,0 l/m 0,0 km/h (0 Bft) O-NO 67 0 min 0,000 mm 0 W/m -2,1 C 1,8 C 4,8 km/h (1 Bft) 100 %
12.03.2017 06:00 1,7 C 1,7 C 1,8 C 76 % 1016,7 hPa 0,0 l/m 1,6 km/h (1 Bft) O-NO 67 0 min 0,025 mm 0 W/m -2,1 C 1,7 C 6,4 km/h (2 Bft) 100 %
12.03.2017 06:10 1,5 C 1,5 C 1,7 C 77 % 1016,7 hPa 0,0 l/m 0,0 km/h (0 Bft) O-NO 67 0 min 0,000 mm 0 W/m -2,1 C 1,5 C 3,2 km/h (1 Bft) 100 %
12.03.2017 06:20 1,4 C 1,4 C 1,5 C 77 % 1016,8 hPa 0,0 l/m 0,0 km/h (0 Bft) NO 45 0 min 0,000 mm 0 W/m -2,2 C 1,4 C 6,4 km/h (2 Bft) 100 %
12.03.2017 06:30 1,4 C 1,4 C 1,4 C 78 % 1016,8 hPa 0,0 l/m 0,0 km/h (0 Bft) N-NO 22 0 min 0,000 mm 0 W/m -2,0 C 1,4 C 9,7 km/h (2 Bft) 100 %
12.03.2017 06:40 1,3 C 1,3 C 1,4 C 79 % 1016,8 hPa 0,0 l/m 0,0 km/h (0 Bft) N-NO 22 0 min 0,000 mm 7 W/m -1,9 C 1,3 C 14,5 km/h (3 Bft) 100 %
12.03.2017 06:50 1,3 C 1,3 C 1,4 C 79 % 1016,8 hPa 0,0 l/m 0,0 km/h (0 Bft) NO 45 0 min 0,000 mm 11 W/m -1,9 C 1,3 C 6,4 km/h (2 Bft) 99 %
12.03.2017 07:00 1,3 C 1,3 C 1,4 C 79 % 1016,8 hPa 0,0 l/m 1,6 km/h (1 Bft) N-NO 22 0 min 0,000 mm 18 W/m -1,9 C 1,3 C 8,0 km/h (2 Bft) 98 %
12.03.2017 07:10 1,4 C 1,3 C 1,4 C 79 % 1016,9 hPa 0,0 l/m 0,0 km/h (0 Bft) N-NW 337 0 min 0,000 mm 23 W/m -1,8 C 1,4 C 4,8 km/h (1 Bft) 87 %
12.03.2017 07:20 1,4 C 1,4 C 1,4 C 79 % 1016,9 hPa 0,0 l/m 0,0 km/h (0 Bft) NO 45 0 min 0,000 mm 26 W/m -1,8 C 1,4 C 6,4 km/h (2 Bft) 98 %
12.03.2017 07:30 1,4 C 1,4 C 1,4 C 79 % 1017,0 hPa 0,0 l/m 0,0 km/h (0 Bft) O-NO 67 0 min 0,000 mm 33 W/m -1,8 C 1,4 C 3,2 km/h (1 Bft) 98 %
12.03.2017 07:40 1,6 C 1,4 C 1,6 C 80 % 1017,0 hPa 0,0 l/m 1,6 km/h (1 Bft) NO 45 0 min 0,000 mm 42 W/m -1,5 C 1,6 C 11,3 km/h (2 Bft) 97 %
12.03.2017 07:50 1,7 C 1,6 C 1,7 C 79 % 1017,0 hPa 0,0 l/m 1,6 km/h (1 Bft) NO 45 0 min 0,000 mm 47 W/m -1,5 C 1,7 C 6,4 km/h (2 Bft) 98 %
12.03.2017 08:00 1,9 C 1,7 C 1,9 C 79 % 1017,1 hPa 0,0 l/m 0,0 km/h (0 Bft) NO 45 0 min 0,025 mm 77 W/m -1,3 C 1,9 C 6,4 km/h (2 Bft) 97 %
12.03.2017 08:10 2,4 C 1,9 C 2,4 C 79 % 1017,1 hPa 0,0 l/m 1,6 km/h (1 Bft) NO 45 10 min 0,000 mm 186 W/m -0,9 C 2,4 C 9,7 km/h (2 Bft) 97 %
12.03.2017 08:20 3,3 C 2,4 C 3,3 C 77 % 1017,2 hPa 0,0 l/m 1,6 km/h (1 Bft) O-NO 67 10 min 0,000 mm 223 W/m -0,3 C 3,3 C 14,5 km/h (3 Bft) 97 %
12.03.2017 08:30 4,2 C 3,4 C 4,2 C 75 % 1017,2 hPa 0,0 l/m 0,0 km/h (0 Bft) O-NO 67 10 min 0,000 mm 253 W/m 0,2 C 4,2 C 8,0 km/h (2 Bft) 97 %
12.03.2017 08:40 4,8 C 4,2 C 4,8 C 71 % 1017,2 hPa 0,0 l/m 1,6 km/h (1 Bft) O 90 10 min 0,000 mm 276 W/m -0,0 C 4,8 C 9,7 km/h (2 Bft) 98 %
12.03.2017 08:50 5,4 C 4,8 C 5,4 C 70 % 1017,2 hPa 0,0 l/m 0,0 km/h (0 Bft) O 90 10 min 0,000 mm 304 W/m 0,4 C 5,4 C 8,0 km/h (2 Bft) 97 %
12.03.2017 09:00 6,0 C 5,4 C 6,0 C 70 % 1017,1 hPa 0,0 l/m 0,0 km/h (0 Bft) SO 135 10 min 0,102 mm 338 W/m 1,0 C 6,0 C 11,3 km/h (2 Bft) 100 %
12.03.2017 09:10 6,6 C 6,0 C 6,6 C 67 % 1017,3 hPa 0,0 l/m 0,0 km/h (0 Bft) O 90 10 min 0,000 mm 362 W/m 0,9 C 6,6 C 11,3 km/h (2 Bft) 100 %
12.03.2017 09:20 7,0 C 6,6 C 7,0 C 67 % 1017,2 hPa 0,0 l/m 0,0 km/h (0 Bft) NO 45 10 min 0,000 mm 392 W/m 1,3 C 7,0 C 6,4 km/h (2 Bft) 100 %
12.03.2017 09:30 7,1 C 7,0 C 7,3 C 64 % 1017,2 hPa 0,0 l/m 3,2 km/h (1 Bft) O-SO 112 10 min 0,000 mm 411 W/m 0,8 C 7,1 C 19,3 km/h (3 Bft) 100 %
12.03.2017 09:40 7,5 C 7,1 C 7,5 C 65 % 1017,1 hPa 0,0 l/m 0,0 km/h (0 Bft) SO 135 10 min 0,000 mm 434 W/m 1,4 C 7,5 C 9,7 km/h (2 Bft) 100 %
12.03.2017 09:50 7,9 C 7,5 C 7,9 C 63 % 1017,1 hPa 0,0 l/m 0,0 km/h (0 Bft) O-NO 67 10 min 0,000 mm 459 W/m 1,3 C 7,9 C 6,4 km/h (2 Bft) 100 %
12.03.2017 10:00 8,2 C 8,0 C 8,2 C 64 % 1016,9 hPa 0,0 l/m 1,6 km/h (1 Bft) O-SO 112 10 min 0,178 mm 483 W/m 1,8 C 8,2 C 12,9 km/h (3 Bft) 100 %
12.03.2017 10:10 8,5 C 8,2 C 8,5 C 63 % 1016,9 hPa 0,0 l/m 1,6 km/h (1 Bft) N-NO 22 10 min 0,000 mm 504 W/m 1,9 C 8,5 C 19,3 km/h (3 Bft) 100 %
12.03.2017 10:20 8,8 C 8,5 C 8,8 C 62 % 1016,7 hPa 0,0 l/m 1,6 km/h (1 Bft) O-SO 112 10 min 0,000 mm 513 W/m 1,9 C 8,8 C 16,1 km/h (3 Bft) 100 %
12.03.2017 10:30 8,8 C 8,7 C 8,8 C 62 % 1016,7 hPa 0,0 l/m 4,8 km/h (1 Bft) O-SO 112 10 min 0,000 mm 540 W/m 1,9 C 8,8 C 16,1 km/h (3 Bft) 100 %
12.03.2017 10:40 9,1 C 8,8 C 9,1 C 62 % 1016,5 hPa 0,0 l/m 3,2 km/h (1 Bft) O 90 10 min 0,000 mm 555 W/m 2,2 C 9,1 C 16,1 km/h (3 Bft) 100 %
12.03.2017 10:50 9,6 C 9,2 C 9,6 C 59 % 1016,5 hPa 0,0 l/m 1,6 km/h (1 Bft) NO 45 10 min 0,000 mm 568 W/m 2,0 C 9,6 C 11,3 km/h (2 Bft) 100 %
12.03.2017 11:00 10,1 C 9,6 C 10,1 C 56 % 1016,4 hPa 0,0 l/m 3,2 km/h (1 Bft) O 90 10 min 0,254 mm 580 W/m 1,7 C 10,1 C 16,1 km/h (3 Bft) 99 %
12.03.2017 11:10 10,1 C 10,1 C 10,2 C 56 % 1016,3 hPa 0,0 l/m 4,8 km/h (1 Bft) O-SO 112 10 min 0,000 mm 596 W/m 1,7 C 10,1 C 17,7 km/h (3 Bft) 100 %
12.03.2017 11:20 10,3 C 10,1 C 10,3 C 57 % 1016,2 hPa 0,0 l/m 4,8 km/h (1 Bft) O-SO 112 10 min 0,000 mm 605 W/m 2,2 C 10,3 C 19,3 km/h (3 Bft) 100 %
12.03.2017 11:30 10,3 C 10,2 C 10,3 C 55 % 1016,1 hPa 0,0 l/m 6,4 km/h (2 Bft) O 90 10 min 0,000 mm 612 W/m 1,7 C 10,3 C 22,5 km/h (4 Bft) 100 %
12.03.2017 11:40 10,4 C 10,3 C 10,4 C 54 % 1016,0 hPa 0,0 l/m 4,8 km/h (1 Bft) O-SO 112 10 min 0,000 mm 624 W/m 1,5 C 10,4 C 17,7 km/h (3 Bft) 100 %
12.03.2017 11:50 10,5 C 10,4 C 10,5 C 56 % 1015,9 hPa 0,0 l/m 4,8 km/h (1 Bft) O 90 10 min 0,000 mm 631 W/m 2,1 C 10,5 C 22,5 km/h (4 Bft) 100 %
12.03.2017 12:00 10,8 C 10,5 C 10,8 C 54 % 1015,8 hPa 0,0 l/m 4,8 km/h (1 Bft) O-SO 112 10 min 0,305 mm 631 W/m 1,9 C 10,8 C 19,3 km/h (3 Bft) 100 %
12.03.2017 12:10 11,2 C 10,8 C 11,2 C 53 % 1015,7 hPa 0,0 l/m 3,2 km/h (1 Bft) O-SO 112 10 min 0,000 mm 638 W/m 2,0 C 11,2 C 16,1 km/h (3 Bft) 100 %
12.03.2017 12:20 11,5 C 11,2 C 11,5 C 50 % 1015,7 hPa 0,0 l/m 1,6 km/h (1 Bft) O-SO 112 10 min 0,000 mm 638 W/m 1,4 C 11,5 C 11,3 km/h (2 Bft) 100 %
12.03.2017 12:30 11,7 C 11,2 C 11,7 C 53 % 1015,7 hPa 0,0 l/m 0,8 km/h (0 Bft) SO 133 10 min 0,000 mm 640 W/m 2,4 C 11,7 C 1,6 km/h (1 Bft) 100 %
12.03.2017 12:40 11,8 C 11,7 C 11,8 C 51 % 1015,5 hPa 0,0 l/m 2,0 km/h (1 Bft) O 86 10 min 0,000 mm 636 W/m 2,0 C 11,8 C 14,5 km/h (3 Bft) 93 %
12.03.2017 12:51 12,1 C 11,8 C 12,1 C 48 % 1015,4 hPa 0,0 l/m 5,4 km/h (1 Bft) SO 133 11 min 0,000 mm 635 W/m 1,4 C 12,1 C 22,5 km/h (4 Bft) 99 %
12.03.2017 13:00 12,1 C 12,0 C 12,1 C 49 % 1015,2 hPa 0,0 l/m 4,2 km/h (1 Bft) N-NW 344 9 min 0,307 mm 628 W/m 1,7 C 12,1 C 24,1 km/h (4 Bft) 100 %
12.03.2017 13:10 12,4 C 12,1 C 12,4 C 48 % 1015,0 hPa 0,0 l/m 4,7 km/h (1 Bft) O-SO 120 10 min 0,000 mm 622 W/m 1,7 C 12,4 C 19,3 km/h (3 Bft) 100 %
12.03.2017 13:20 12,6 C 12,4 C 12,6 C 46 % 1014,9 hPa 0,0 l/m 3,7 km/h (1 Bft) O 94 10 min 0,000 mm 617 W/m 1,3 C 12,6 C 19,3 km/h (3 Bft) 100 %
12.03.2017 13:30 12,6 C 12,4 C 12,6 C 47 % 1014,8 hPa 0,0 l/m 2,4 km/h (1 Bft) O 98 10 min 0,000 mm 606 W/m 1,6 C 12,6 C 19,3 km/h (3 Bft) 100 %
12.03.2017 13:40 12,8 C 12,5 C 12,8 C 48 % 1014,7 hPa 0,0 l/m 1,6 km/h (1 Bft) N-NO 29 10 min 0,000 mm 596 W/m 2,1 C 12,8 C 14,5 km/h (3 Bft) 98 %
12.03.2017 13:50 13,0 C 12,8 C 13,1 C 45 % 1014,7 hPa 0,0 l/m 1,3 km/h (1 Bft) O-NO 70 10 min 0,000 mm 585 W/m 1,4 C 13,0 C 14,5 km/h (3 Bft) 97 %
12.03.2017 14:00 13,0 C 13,0 C 13,1 C 46 % 1014,7 hPa 0,0 l/m 3,1 km/h (1 Bft) O-SO 103 10 min 0,305 mm 568 W/m 1,7 C 13,0 C 19,3 km/h (3 Bft) 97 %
12.03.2017 14:10 13,2 C 12,9 C 13,2 C 47 % 1014,6 hPa 0,0 l/m 0,8 km/h (0 Bft) N 349 10 min 0,000 mm 520 W/m 2,1 C 13,2 C 16,1 km/h (3 Bft) 98 %
12.03.2017 14:20 13,4 C 13,2 C 13,4 C 50 % 1014,7 hPa 0,0 l/m 1,2 km/h (1 Bft) O-SO 115 10 min 0,000 mm 527 W/m 3,2 C 13,4 C 19,3 km/h (3 Bft) 97 %
12.03.2017 14:30 13,1 C 13,1 C 13,5 C 47 % 1014,6 hPa 0,0 l/m 3,8 km/h (1 Bft) N 11 10 min 0,000 mm 503 W/m 2,0 C 13,1 C 19,3 km/h (3 Bft) 98 %
12.03.2017 14:40 12,9 C 12,9 C 13,1 C 48 % 1014,6 hPa 0,0 l/m 5,0 km/h (1 Bft) SO 124 10 min 0,000 mm 483 W/m 2,2 C 12,9 C 22,5 km/h (4 Bft) 97 %
12.03.2017 14:50 13,2 C 12,9 C 13,2 C 47 % 1014,6 hPa 0,0 l/m 1,4 km/h (1 Bft) O 92 10 min 0,000 mm 330 W/m 2,1 C 13,2 C 14,5 km/h (3 Bft) 98 %
12.03.2017 15:00 12,9 C 12,9 C 13,2 C 47 % 1014,6 hPa 0,0 l/m 4,3 km/h (1 Bft) SO 126 0 min 0,228 mm 84 W/m 1,9 C 12,9 C 17,7 km/h (3 Bft) 97 %
12.03.2017 15:10 12,8 C 12,8 C 12,9 C 48 % 1014,4 hPa 0,0 l/m 2,4 km/h (1 Bft) NO 49 0 min 0,000 mm 81 W/m 2,1 C 12,8 C 14,5 km/h (3 Bft) 96 %
12.03.2017 15:20 12,9 C 12,8 C 12,9 C 48 % 1014,3 hPa 0,0 l/m 2,7 km/h (1 Bft) SO 144 0 min 0,000 mm 83 W/m 2,2 C 12,9 C 17,7 km/h (3 Bft) 98 %
12.03.2017 15:30 12,8 C 12,8 C 12,9 C 48 % 1014,2 hPa 0,0 l/m 1,0 km/h (0 Bft) O-NO 60 0 min 0,000 mm 90 W/m 2,1 C 12,8 C 11,3 km/h (2 Bft) 97 %
12.03.2017 15:40 12,8 C 12,8 C 12,8 C 48 % 1014,2 hPa 0,0 l/m 2,3 km/h (1 Bft) N 360 0 min 0,000 mm 104 W/m 2,1 C 12,8 C 11,3 km/h (2 Bft) 98 %
12.03.2017 15:50 12,9 C 12,8 C 12,9 C 51 % 1014,1 hPa 0,0 l/m 2,1 km/h (1 Bft) O-NO 67 0 min 0,000 mm 111 W/m 3,0 C 12,9 C 17,7 km/h (3 Bft) 97 %
12.03.2017 16:00 12,8 C 12,8 C 12,9 C 49 % 1013,9 hPa 0,0 l/m 3,6 km/h (1 Bft) O-SO 109 0 min 0,076 mm 113 W/m 2,4 C 12,8 C 17,7 km/h (3 Bft) 97 %
12.03.2017 16:10 12,7 C 12,7 C 12,8 C 46 % 1014,0 hPa 0,0 l/m 1,9 km/h (1 Bft) SO 126 0 min 0,000 mm 104 W/m 1,4 C 12,7 C 16,1 km/h (3 Bft) 98 %
12.03.2017 16:20 12,7 C 12,6 C 12,7 C 47 % 1014,1 hPa 0,0 l/m 3,9 km/h (1 Bft) N-NO 24 0 min 0,000 mm 93 W/m 1,7 C 12,7 C 16,1 km/h (3 Bft) 97 %
12.03.2017 16:30 12,7 C 12,6 C 12,7 C 48 % 1014,0 hPa 0,0 l/m 1,3 km/h (1 Bft) O-SO 113 0 min 0,000 mm 86 W/m 2,0 C 12,7 C 14,5 km/h (3 Bft) 98 %
12.03.2017 16:40 12,6 C 12,6 C 12,7 C 49 % 1014,0 hPa 0,0 l/m 0,3 km/h (0 Bft) NO 52 0 min 0,000 mm 79 W/m 2,2 C 12,6 C 6,4 km/h (2 Bft) 97 %
12.03.2017 16:50 12,3 C 12,3 C 12,6 C 50 % 1014,0 hPa 0,0 l/m 2,0 km/h (1 Bft) NO 46 0 min 0,000 mm 69 W/m 2,2 C 12,3 C 11,3 km/h (2 Bft) 98 %
12.03.2017 17:00 11,9 C 11,9 C 12,3 C 50 % 1014,2 hPa 0,0 l/m 0,7 km/h (0 Bft) NO 50 0 min 0,051 mm 62 W/m 1,8 C 11,9 C 6,4 km/h (2 Bft) 97 %
12.03.2017 17:10 11,6 C 11,6 C 11,9 C 50 % 1014,2 hPa 0,0 l/m 1,3 km/h (1 Bft) NO 38 0 min 0,000 mm 42 W/m 1,5 C 11,6 C 8,0 km/h (2 Bft) 97 %
12.03.2017 17:20 11,2 C 11,2 C 11,6 C 52 % 1014,4 hPa 0,0 l/m 0,3 km/h (0 Bft) NO 51 0 min 0,000 mm 32 W/m 1,7 C 11,2 C 4,8 km/h (1 Bft) 97 %
12.03.2017 17:30 10,9 C 10,9 C 11,2 C 52 % 1014,4 hPa 0,0 l/m 0,4 km/h (0 Bft) O-NO 70 0 min 0,000 mm 28 W/m 1,4 C 10,9 C 8,0 km/h (2 Bft) 97 %
12.03.2017 17:40 10,6 C 10,6 C 10,9 C 52 % 1014,6 hPa 0,0 l/m 0,3 km/h (0 Bft) NO 36 0 min 0,000 mm 25 W/m 1,2 C 10,6 C 4,8 km/h (1 Bft) 97 %
12.03.2017 17:50 10,3 C 10,3 C 10,6 C 53 % 1014,6 hPa 0,0 l/m 0,3 km/h (0 Bft) NO 56 0 min 0,000 mm 21 W/m 1,1 C 10,3 C 6,4 km/h (2 Bft) 97 %
12.03.2017 18:00 10,1 C 10,1 C 10,3 C 52 % 1014,6 hPa 0,0 l/m 0,0 km/h (0 Bft) NO 55 0 min 0,026 mm 18 W/m 0,7 C 10,1 C 1,6 km/h (1 Bft) 97 %
12.03.2017 18:10 9,7 C 9,7 C 10,1 C 54 % 1014,6 hPa 0,0 l/m 0,0 km/h (0 Bft) O-NO 57 0 min 0,000 mm 12 W/m 0,9 C 9,7 C 0,0 km/h (0 Bft) 98 %
12.03.2017 18:20 9,4 C 9,4 C 9,7 C 55 % 1014,8 hPa 0,0 l/m 0,0 km/h (0 Bft) NO 55 0 min 0,000 mm 5 W/m 0,8 C 9,4 C 1,6 km/h (1 Bft) 98 %
12.03.2017 18:30 9,1 C 9,0 C 9,4 C 57 % 1014,8 hPa 0,0 l/m 0,6 km/h (0 Bft) NO 47 0 min 0,000 mm 0 W/m 1,0 C 9,1 C 4,8 km/h (1 Bft) 97 %
12.03.2017 18:40 8,7 C 8,7 C 9,1 C 58 % 1015,0 hPa 0,0 l/m 1,9 km/h (1 Bft) NO 42 0 min 0,000 mm 0 W/m 0,9 C 8,7 C 6,4 km/h (2 Bft) 97 %
12.03.2017 18:50 8,5 C 8,5 C 8,7 C 58 % 1015,3 hPa 0,0 l/m 0,9 km/h (0 Bft) NO 51 0 min 0,000 mm 0 W/m 0,7 C 8,5 C 8,0 km/h (2 Bft) 98 %
12.03.2017 19:00 8,3 C 8,3 C 8,5 C 60 % 1015,4 hPa 0,0 l/m 1,7 km/h (1 Bft) NO 44 0 min 0,000 mm 0 W/m 1,0 C 8,3 C 6,4 km/h (2 Bft) 98 %
12.03.2017 19:10 8,0 C 8,0 C 8,3 C 60 % 1015,5 hPa 0,0 l/m 1,5 km/h (1 Bft) O-NO 59 0 min 0,000 mm 0 W/m 0,7 C 8,0 C 4,8 km/h (1 Bft) 97 %
12.03.2017 19:20 7,8 C 7,8 C 8,0 C 60 % 1015,5 hPa 0,0 l/m 0,7 km/h (0 Bft) O 89 0 min 0,000 mm 0 W/m 0,5 C 7,8 C 4,8 km/h (1 Bft) 97 %
12.03.2017 19:30 7,7 C 7,7 C 7,8 C 61 % 1015,6 hPa 0,0 l/m 0,3 km/h (0 Bft) O-NO 63 0 min 0,000 mm 0 W/m 0,7 C 7,7 C 8,0 km/h (2 Bft) 97 %
12.03.2017 19:40 7,6 C 7,6 C 7,7 C 62 % 1015,6 hPa 0,0 l/m 0,0 km/h (0 Bft) NO 45 0 min 0,000 mm 0 W/m 0,8 C 7,6 C 3,2 km/h (1 Bft) 90 %
12.03.2017 19:50 7,3 C 7,3 C 7,6 C 61 % 1015,7 hPa 0,0 l/m 0,0 km/h (0 Bft) NO 45 0 min 0,000 mm 0 W/m 0,3 C 7,3 C 3,2 km/h (1 Bft) 97 %
12.03.2017 20:00 7,3 C 7,3 C 7,4 C 61 % 1015,8 hPa 0,0 l/m 0,1 km/h (0 Bft) O-NO 66 0 min 0,025 mm 0 W/m 0,3 C 7,3 C 3,2 km/h (1 Bft) 98 %
12.03.2017 20:10 7,2 C 7,2 C 7,3 C 62 % 1016,1 hPa 0,0 l/m 0,5 km/h (0 Bft) NO 46 0 min 0,000 mm 0 W/m 0,4 C 7,2 C 4,8 km/h (1 Bft) 97 %
12.03.2017 20:20 7,1 C 7,1 C 7,2 C 63 % 1016,2 hPa 0,0 l/m 0,0 km/h (0 Bft) NO 44 0 min 0,000 mm 0 W/m 0,5 C 7,1 C 1,6 km/h (1 Bft) 97 %
12.03.2017 20:30 6,8 C 6,8 C 7,1 C 63 % 1016,3 hPa 0,0 l/m 0,4 km/h (0 Bft) NO 44 0 min 0,000 mm 0 W/m 0,3 C 6,8 C 3,2 km/h (1 Bft) 98 %
12.03.2017 20:40 6,5 C 6,5 C 6,8 C 65 % 1016,4 hPa 0,0 l/m 0,0 km/h (0 Bft) NO 44 0 min 0,000 mm 0 W/m 0,4 C 6,5 C 1,6 km/h (1 Bft) 97 %
12.03.2017 20:50 6,3 C 6,3 C 6,5 C 65 % 1016,5 hPa 0,0 l/m 1,3 km/h (1 Bft) NO 41 0 min 0,000 mm 0 W/m 0,2 C 6,3 C 4,8 km/h (1 Bft) 98 %
12.03.2017 21:00 6,2 C 6,2 C 6,3 C 66 % 1016,5 hPa 0,0 l/m 1,2 km/h (1 Bft) NO 36 0 min 0,025 mm 0 W/m 0,3 C 6,2 C 4,8 km/h (1 Bft) 97 %
12.03.2017 21:10 6,0 C 6,0 C 6,2 C 67 % 1016,7 hPa 0,0 l/m 0,0 km/h (0 Bft) NO 45 0 min 0,000 mm 0 W/m 0,3 C 6,0 C 3,2 km/h (1 Bft) 100 %
12.03.2017 21:20 5,9 C 5,9 C 6,0 C 67 % 1016,6 hPa 0,0 l/m 0,0 km/h (0 Bft) NO 45 0 min 0,000 mm 0 W/m 0,3 C 5,9 C 8,0 km/h (2 Bft) 100 %
12.03.2017 21:30 5,8 C 5,8 C 5,9 C 68 % 1016,9 hPa 0,0 l/m 0,0 km/h (0 Bft) NO 45 0 min 0,000 mm 0 W/m 0,4 C 5,8 C 6,4 km/h (2 Bft) 100 %
12.03.2017 21:40 5,7 C 5,7 C 5,8 C 68 % 1017,0 hPa 0,0 l/m 1,6 km/h (1 Bft) NO 45 0 min 0,000 mm 0 W/m 0,3 C 5,7 C 6,4 km/h (2 Bft) 100 %
12.03.2017 21:50 5,5 C 5,5 C 5,7 C 69 % 1017,2 hPa 0,0 l/m 0,0 km/h (0 Bft) N-NO 22 0 min 0,000 mm 0 W/m 0,3 C 5,5 C 1,6 km/h (1 Bft) 100 %
12.03.2017 22:00 5,3 C 5,3 C 5,5 C 70 % 1017,2 hPa 0,0 l/m 0,0 km/h (0 Bft) NO 45 0 min 0,025 mm 0 W/m 0,3 C 5,3 C 6,4 km/h (2 Bft) 100 %
12.03.2017 22:10 5,2 C 5,2 C 5,3 C 70 % 1017,1 hPa 0,0 l/m 1,6 km/h (1 Bft) NO 45 0 min 0,000 mm 0 W/m 0,2 C 5,2 C 6,4 km/h (2 Bft) 100 %
12.03.2017 22:20 5,1 C 5,1 C 5,2 C 71 % 1017,4 hPa 0,0 l/m 0,0 km/h (0 Bft) NO 45 0 min 0,000 mm 0 W/m 0,3 C 5,1 C 1,6 km/h (1 Bft) 100 %
12.03.2017 22:30 4,8 C 4,8 C 5,1 C 72 % 1017,5 hPa 0,0 l/m 1,6 km/h (1 Bft) N-NO 22 0 min 0,000 mm 0 W/m 0,2 C 4,8 C 6,4 km/h (2 Bft) 100 %
12.03.2017 22:40 4,7 C 4,7 C 4,8 C 72 % 1017,6 hPa 0,0 l/m 0,0 km/h (0 Bft) NO 45 0 min 0,000 mm 0 W/m 0,1 C 4,7 C 4,8 km/h (1 Bft) 100 %
12.03.2017 22:50 4,4 C 4,4 C 4,7 C 72 % 1017,7 hPa 0,0 l/m 1,6 km/h (1 Bft) O-NO 67 0 min 0,000 mm 0 W/m -0,2 C 4,4 C 11,3 km/h (2 Bft) 100 %
12.03.2017 23:00 4,3 C 4,3 C 4,4 C 72 % 1017,8 hPa 0,0 l/m 0,0 km/h (0 Bft) O-NO 67 0 min 0,025 mm 0 W/m -0,3 C 4,3 C 3,2 km/h (1 Bft) 100 %
12.03.2017 23:10 4,3 C 4,3 C 4,4 C 72 % 1017,8 hPa 0,0 l/m 0,0 km/h (0 Bft) O-NO 67 0 min 0,000 mm 0 W/m -0,3 C 4,3 C 6,4 km/h (2 Bft) 100 %
12.03.2017 23:20 4,2 C 4,2 C 4,3 C 73 % 1017,9 hPa 0,0 l/m 0,0 km/h (0 Bft) N-NO 22 0 min 0,000 mm 0 W/m -0,2 C 4,2 C 8,0 km/h (2 Bft) 100 %
12.03.2017 23:30 4,1 C 4,1 C 4,2 C 72 % 1017,9 hPa 0,0 l/m 0,0 km/h (0 Bft) NO 45 0 min 0,000 mm 0 W/m -0,5 C 4,1 C 9,7 km/h (2 Bft) 100 %
12.03.2017 23:40 4,2 C 4,1 C 4,2 C 72 % 1018,0 hPa 0,0 l/m 0,0 km/h (0 Bft) NO 45 0 min 0,000 mm 0 W/m -0,4 C 4,2 C 9,7 km/h (2 Bft) 100 %
12.03.2017 23:50 4,1 C 4,1 C 4,2 C 73 % 1018,0 hPa 0,0 l/m 0,0 km/h (0 Bft) O-SO 112 0 min 0,000 mm 0 W/m -0,3 C 4,1 C 6,4 km/h (2 Bft) 100 %
_ Min-Zeit 06:40 06:40 06:30 13:50 16:00 - 00:00 - - - - - 06:20 06:40 01:10 02:20
Minimum _ 1,3 C 1,3 C 1,4 C 45 % 1013,9 hPa - 0,0 km/h (0 Bft) - - - - - -2,2 C 1,3 C 0,0 km/h (0 Bft) 87 %
_ Max-Zeit 14:30 14:20 14:30 07:40 00:00 00:00 11:30 - - 12:51 13:00 12:30 14:20 14:20 13:00 00:00
Maximum _ 13,5 C 13,2 C 13,5 C 80 % 1019,0 hPa 0,0 l/m 6,4 km/h
O (2 Bft)
- - 11 min 0,307 mm 640 W/m 3,2 C 13,4 C 24,1 km/h
SO (4 Bft)
100 %
Durchschnitt _ 6,8 C 6,7 C 6,9 C 65 % 1016,4 hPa #0,0 l/m 1,3 km/h (1 Bft) NO - #6:50 h #2,107 mm 317 W/m 0,4 C 6,8 C 9,2 km/h (2 Bft) 99 %
PRIVATE WETTERSTATION BILLIGHEIM-ALLFELD - www.neckar-odenwald-wetter.de - Holger Sonntag